Terminal Aerodrome Forecast
Issued by NWS Blacksburg, VA

Current Version | Previous Version | Graphics & Text | Print | Product List | Glossary On
Versions: 1 2 3 4 5 6 7 8 9 10 11 12 13 14 15 16 17 18 19 20 21 22 23 24 25 26 27 28 29 30 31 32 33 34 35 36 37 38 39 40 41 42 43 44 45 46 47 48 49 50
000
FTUS41 KRNK 050142 AAA
TAFBLF
TAF AMD
KBLF 050142Z 0502/0524 32003KT 3SM -RA BR BKN015 OVC030
      TEMPO 0502/0504 SCT008 OVC015
     FM050600 31004KT 2SM -RAPL BR OVC006
     FM051000 32008KT 1SM -SNPL BR OVC003
     FM051500 33008KT 2SM -SN BR OVC008
     FM051900 33006KT 4SM -SN BR OVC015
     FM052200 33006KT P6SM OVC025=

USA.gov is the U.S. government's official web portal to all federal, state and local government web resources and services.